Terminal Aerodrome Forecast
Issued by NWS Wilmington, OH

Current Version | Previous Version | Text Only | Print | Product List | Glossary Off
Versions: 1 2 3 4 5 6 7 8 9 10 11 12 13 14 15 16 17 18 19 20 21 22

000
FTUS41 KILN 251458 AAA
TAFCVG
TAF AMD
KCVG 251458Z 2515/2618 14006KT P6SM SCT040
     FM260200 16005KT P6SM FEW250
     FM261500 18010KT P6SM FEW250=

USA.gov is the U.S. government's official web portal to all federal, state and local government web resources and services.